Time;durP1;ratioP1;P1;durP2;ratioP2;P2;SDS_P1;SDS_P2;PMS_P1;PMS_P2;Temp;Humidity;BMP_temperature;BMP_pressure;BME280_temperature;BME280_humidity;BME280_pressure;Samples;Min_cycle;Max_cycle;Signal;HPM_P1;HPM_P2
2021/05/03 00:01:49;;;;;;;9.78;6.50;;;;;;;4.36;80.06;99431.96;233109;1177;115049;-65
2021/05/03 00:06:53;;;;;;;11.17;4.73;;;;;;;4.34;81.20;99445.36;232972;1177;115362;-67
2021/05/03 00:11:56;;;;;;;5.90;4.87;;;;;;;4.30;81.24;99454.69;232578;1178;115766;-70
2021/05/03 00:16:59;;;;;;;5.88;5.28;;;;;;;4.31;80.90;99453.67;233588;1177;115857;-69
2021/05/03 00:22:04;;;;;;;5.87;4.87;;;;;;;4.35;80.37;99457.53;234500;1178;116641;-68
2021/05/03 00:27:06;;;;;;;6.45;5.70;;;;;;;4.39;80.52;99461.41;234459;1177;116352;-68
2021/05/03 00:32:12;;;;;;;4.80;4.13;;;;;;;4.34;80.88;99471.74;234458;1177;117503;-69
2021/05/03 00:37:15;;;;;;;5.43;4.90;;;;;;;4.42;80.92;99462.83;233938;1177;115988;-68
2021/05/03 00:42:19;;;;;;;2.60;2.20;;;;;;;4.43;80.56;99469.73;234102;1177;115073;-67
2021/05/03 00:47:24;;;;;;;7.53;5.10;;;;;;;4.36;80.14;99469.72;232556;1177;115146;-66
2021/05/03 00:52:29;;;;;;;6.65;5.85;;;;;;;4.39;80.84;99458.77;232660;1177;115726;-66
2021/05/03 00:57:33;;;;;;;5.17;4.20;;;;;;;4.40;80.70;99465.67;232818;1177;115596;-69
2021/05/03 01:02:39;;;;;;;9.10;5.25;;;;;;;4.36;80.95;99474.19;231915;1177;114923;-67
2021/05/03 01:07:43;;;;;;;9.60;6.45;;;;;;;4.33;80.79;99474.58;232337;1177;115976;-69
2021/05/03 01:12:48;;;;;;;6.97;6.03;;;;;;;4.38;80.77;99477.44;232030;1177;115479;-68
2021/05/03 01:18:00;;;;;;;9.07;8.13;;;;;;;4.35;80.38;99478.65;232134;1177;116931;-69
2021/05/03 01:23:05;;;;;;;8.43;5.13;;;;;;;4.32;80.73;99488.79;232177;1177;115719;-69
2021/05/03 01:28:09;;;;;;;8.97;6.60;;;;;;;4.31;80.82;99501.17;232695;1178;116696;-68
2021/05/03 01:33:14;;;;;;;3.10;2.80;;;;;;;4.30;80.74;99501.37;233223;1179;116605;-68
2021/05/03 01:38:19;;;;;;;5.13;3.87;;;;;;;4.29;80.95;99513.75;232107;1177;115904;-68
2021/05/03 01:43:25;;;;;;;8.27;5.67;;;;;;;4.33;80.67;99519.44;232994;1177;114433;-68
2021/05/03 01:48:31;;;;;;;5.10;4.30;;;;;;;4.32;80.49;99523.09;233273;1177;115035;-68
2021/05/03 01:53:34;;;;;;;5.65;4.75;;;;;;;4.33;80.26;99516.80;232157;1174;117076;-68
2021/05/03 01:58:38;;;;;;;1.00;1.00;;;;;;;4.30;80.27;99527.75;232088;1177;117469;-69
2021/05/03 02:03:42;;;;;;;7.70;5.35;;;;;;;4.30;80.30;99533.03;233290;1178;116566;-68
2021/05/03 02:08:47;;;;;;;10.60;4.90;;;;;;;4.29;79.78;99532.22;232586;1179;118130;-68
2021/05/03 02:13:52;;;;;;;5.43;4.73;;;;;;;4.25;80.40;99517.82;233873;1170;114638;-68
2021/05/03 02:18:55;;;;;;;7.03;5.80;;;;;;;4.20;80.32;99524.70;234364;1177;115256;-68
2021/05/03 02:23:58;;;;;;;7.93;7.15;;;;;;;4.25;80.07;99535.48;233629;1177;114611;-67
2021/05/03 02:29:02;;;;;;;7.75;5.50;;;;;;;4.29;80.77;99542.77;234570;1177;114583;-69
2021/05/03 02:34:06;;;;;;;8.67;4.97;;;;;;;4.27;80.76;99539.55;234619;1177;114625;-69
2021/05/03 02:39:09;;;;;;;7.77;5.60;;;;;;;4.24;80.37;99545.22;232314;1177;114855;-68
2021/05/03 02:44:14;;;;;;;7.50;5.90;;;;;;;4.26;79.66;99548.47;233761;1177;139895;-69
2021/05/03 02:49:17;;;;;;;7.03;6.40;;;;;;;4.24;80.65;99555.77;232284;1177;116122;-69
2021/05/03 02:54:21;;;;;;;8.70;5.07;;;;;;;4.16;80.46;99553.30;232518;1177;116024;-69
2021/05/03 02:59:25;;;;;;;3.10;2.90;;;;;;;4.11;80.31;99557.53;233405;1177;116672;-67
2021/05/03 03:04:28;;;;;;;4.95;4.45;;;;;;;4.11;80.11;99563.63;232969;1177;116965;-64
2021/05/03 03:09:31;;;;;;;7.00;5.20;;;;;;;4.07;80.54;99580.85;232092;1178;115642;-69
2021/05/03 03:14:34;;;;;;;6.88;5.95;;;;;;;4.05;81.10;99585.51;232737;1177;116087;-67
2021/05/03 03:19:41;;;;;;;5.75;4.45;;;;;;;4.04;81.06;99587.33;232605;1177;116705;-67
2021/05/03 03:24:45;;;;;;;8.90;6.80;;;;;;;4.04;79.77;99589.97;232529;1174;114859;-67
2021/05/03 03:29:48;;;;;;;6.90;5.27;;;;;;;4.10;80.22;99585.73;232747;1177;114967;-67
2021/05/03 03:34:52;;;;;;;9.20;5.85;;;;;;;4.09;80.89;99596.48;232208;1177;115330;-67
2021/05/03 03:39:55;;;;;;;6.58;5.50;;;;;;;4.06;80.86;99597.69;232412;1174;115099;-66
2021/05/03 03:44:58;;;;;;;8.20;5.60;;;;;;;4.10;80.61;99601.56;232147;1177;115428;-67
2021/05/03 03:50:04;;;;;;;5.73;4.23;;;;;;;4.13;80.18;99600.36;232312;1177;115313;-67
2021/05/03 03:55:07;;;;;;;5.20;4.40;;;;;;;4.12;80.47;99609.28;232030;1177;115471;-68
2021/05/03 04:00:10;;;;;;;9.38;6.73;;;;;;;4.19;80.33;99613.59;232810;1178;115535;-66
2021/05/03 04:21:22;;;;;;;9.83;7.40;;;;;;;4.34;80.21;99640.63;234377;1179;115351;-67
2021/05/03 04:26:26;;;;;;;8.97;6.63;;;;;;;4.43;80.47;99640.47;233620;1179;115366;-67
2021/05/03 04:31:28;;;;;;;10.25;8.18;;;;;;;4.51;79.94;99645.59;234515;1177;115918;-68
2021/05/03 04:36:32;;;;;;;12.00;6.70;;;;;;;4.59;80.44;99651.48;234253;1177;115681;-67
2021/05/03 04:41:35;;;;;;;6.30;5.30;;;;;;;4.80;79.74;99657.66;233607;1177;115433;-67
2021/05/03 04:46:37;;;;;;;8.57;5.50;;;;;;;4.95;80.19;99664.39;232018;1172;115990;-68
2021/05/03 04:51:41;;;;;;;10.60;7.00;;;;;;;5.03;80.09;99656.28;232749;1175;116770;-67
2021/05/03 04:56:44;;;;;;;12.47;5.73;;;;;;;5.13;79.88;99663.83;232295;1177;116091;-67
2021/05/03 05:01:48;;;;;;;7.80;6.00;;;;;;;5.29;79.91;99675.83;232802;1177;116106;-66
2021/05/03 05:06:55;;;;;;;6.37;5.77;;;;;;;5.43;79.68;99685.41;232702;1177;115884;-67
2021/05/03 05:12:00;;;;;;;8.70;6.40;;;;;;;5.61;79.34;99676.86;233364;1177;115470;-67
2021/05/03 05:17:03;;;;;;;7.50;6.40;;;;;;;5.82;79.33;99676.63;231998;1179;115927;-67
2021/05/03 05:22:08;;;;;;;7.67;6.63;;;;;;;5.91;78.28;99686.02;231936;1179;116353;-68
2021/05/03 05:27:11;;;;;;;6.10;5.48;;;;;;;5.98;79.09;99691.31;232294;1177;116048;-67
2021/05/03 05:32:15;;;;;;;13.80;7.55;;;;;;;6.21;78.89;99681.08;232234;1177;122165;-66
2021/05/03 05:37:18;;;;;;;10.30;5.93;;;;;;;6.60;77.51;99695.22;231850;1177;116138;-68
2021/05/03 05:42:22;;;;;;;8.60;5.20;;;;;;;6.89;77.39;99702.63;232415;1177;115838;-67
2021/05/03 05:47:25;;;;;;;5.60;3.87;;;;;;;7.26;77.31;99692.23;231952;1177;115709;-67
2021/05/03 05:52:29;;;;;;;4.23;3.93;;;;;;;8.24;75.97;99714.47;232434;1177;115491;-67
2021/05/03 05:57:32;;;;;;;5.63;4.50;;;;;;;8.69;74.60;99728.30;232135;1177;115491;-67
2021/05/03 06:02:35;;;;;;;17.30;6.10;;;;;;;9.09;74.94;99723.30;233502;1177;115465;-68
2021/05/03 06:07:39;;;;;;;4.70;4.17;;;;;;;9.49;73.05;99721.91;233297;1177;115861;-68
2021/05/03 06:12:44;;;;;;;4.35;3.55;;;;;;;9.73;72.87;99724.41;233648;1174;116601;-68
2021/05/03 06:17:47;;;;;;;5.43;3.47;;;;;;;9.72;72.75;99721.97;232574;1173;116288;-67
2021/05/03 06:23:02;;;;;;;4.90;3.47;;;;;;;10.00;71.91;99727.44;233622;1177;115252;-68
2021/05/03 06:28:05;;;;;;;4.57;2.77;;;;;;;9.97;70.73;99727.89;234518;1177;115782;-68
2021/05/03 06:33:08;;;;;;;3.10;2.53;;;;;;;10.10;70.90;99729.50;234184;1177;115314;-69
2021/05/03 06:38:11;;;;;;;5.60;3.00;;;;;;;10.16;71.14;99731.25;232995;1177;115273;-69
2021/05/03 06:43:15;;;;;;;3.78;3.15;;;;;;;9.90;70.34;99739.69;232006;1177;114887;-68
2021/05/03 06:48:18;;;;;;;3.95;2.50;;;;;;;9.58;69.56;99741.83;232453;1177;116047;-68
2021/05/03 06:53:22;;;;;;;5.00;1.85;;;;;;;9.52;69.23;99754.19;233195;1177;115212;-68
2021/05/03 06:58:25;;;;;;;2.53;2.13;;;;;;;9.41;69.58;99755.80;233292;1177;114577;-68
2021/05/03 07:03:28;;;;;;;2.70;2.50;;;;;;;9.53;70.08;99766.46;232276;1177;114860;-67
2021/05/03 07:08:31;;;;;;;4.45;2.55;;;;;;;9.61;68.81;99768.80;231955;1177;115501;-67
2021/05/03 07:13:35;;;;;;;3.37;3.10;;;;;;;9.51;68.90;99783.69;232948;1177;114970;-67
2021/05/03 07:18:40;;;;;;;1.17;1.13;;;;;;;9.31;67.93;99790.11;231981;1177;115109;-67
2021/05/03 07:23:43;;;;;;;2.30;1.80;;;;;;;9.20;67.77;99790.04;232175;1177;115542;-67
2021/05/03 07:28:46;;;;;;;1.40;1.40;;;;;;;9.10;68.23;99796.72;231905;1177;115600;-68
2021/05/03 07:33:50;;;;;;;3.15;1.90;;;;;;;9.07;68.18;99799.83;232182;1177;115643;-67
2021/05/03 07:38:52;;;;;;;2.60;2.10;;;;;;;9.24;67.23;99799.20;232387;1177;115770;-67
2021/05/03 07:43:55;;;;;;;1.98;1.88;;;;;;;9.43;67.46;99808.78;232039;1177;115038;-67
2021/05/03 07:49:00;;;;;;;2.35;1.63;;;;;;;9.76;67.32;99809.13;232071;1177;115289;-67
2021/05/03 07:54:04;;;;;;;1.70;1.60;;;;;;;10.12;67.30;99817.98;232035;1177;115490;-68
2021/05/03 07:59:07;;;;;;;1.60;1.50;;;;;;;9.87;66.00;99815.51;232151;1177;115553;-67
2021/05/03 08:04:10;;;;;;;2.20;2.00;;;;;;;9.72;65.98;99818.61;232466;1171;115636;-68
2021/05/03 08:09:12;;;;;;;1.57;1.13;;;;;;;9.65;66.65;99828.53;232041;1179;115997;-67
2021/05/03 08:14:18;;;;;;;1.80;1.67;;;;;;;9.30;65.90;99849.66;232294;1177;115380;-67
2021/05/03 08:19:23;;;;;;;2.30;2.10;;;;;;;8.98;65.62;99846.35;233689;1177;115822;-67
2021/05/03 08:24:34;;;;;;;1.95;1.85;;;;;;;9.10;65.35;99857.08;234052;1170;115506;-68
2021/05/03 08:29:38;;;;;;;3.03;1.80;;;;;;;9.31;65.37;99858.45;234478;1177;114962;-67
2021/05/03 08:34:41;;;;;;;1.85;1.30;;;;;;;9.53;64.65;99862.26;233755;1177;115157;-68
2021/05/03 08:39:44;;;;;;;2.55;1.50;;;;;;;9.60;65.24;99859.52;232768;1178;115421;-67
2021/05/03 08:44:49;;;;;;;1.40;1.10;;;;;;;9.66;64.28;99870.08;234144;1176;115891;-67
2021/05/03 08:49:56;;;;;;;2.98;2.58;;;;;;;10.03;65.43;99865.47;233047;1177;114712;-68
2021/05/03 08:55:00;;;;;;;2.45;1.50;;;;;;;10.32;65.27;99865.66;231882;1177;114746;-67
2021/05/03 09:00:11;;;;;;;3.10;2.50;;;;;;;10.05;64.62;99889.20;232116;1177;115562;-68
2021/05/03 09:05:16;;;;;;;3.10;2.90;;;;;;;9.30;65.30;99891.41;232045;1173;115408;-67
2021/05/03 09:10:21;;;;;;;1.70;1.60;;;;;;;8.97;66.31;99895.24;232416;1177;115293;-67
2021/05/03 09:15:25;;;;;;;5.10;2.40;;;;;;;9.02;65.88;99903.38;232572;1177;114750;-67
2021/05/03 09:20:28;;;;;;;2.55;1.90;;;;;;;9.30;66.26;99905.52;232834;1177;115061;-67
2021/05/03 09:25:40;;;;;;;2.20;2.00;;;;;;;9.32;66.77;99897.33;232088;1175;116157;-67
2021/05/03 09:30:47;;;;;;;2.50;2.30;;;;;;;9.35;67.11;99902.20;232473;1174;116072;-67
2021/05/03 09:36:16;;;;;;;6.90;2.97;;;;;;;9.61;66.85;99904.54;232297;1177;115647;-69
2021/05/03 09:41:22;;;;;;;3.50;3.20;;;;;;;9.63;65.89;99910.45;232397;1177;115901;-68
2021/05/03 09:46:28;;;;;;;3.03;2.78;;;;;;;9.62;66.66;99908.02;232261;1177;115885;-68
2021/05/03 09:51:38;;;;;;;3.20;2.30;;;;;;;9.77;66.29;99925.23;232619;1177;116074;-68
2021/05/03 09:56:46;;;;;;;2.73;2.13;;;;;;;10.10;65.84;99924.75;233489;1177;115541;-67
2021/05/03 10:08:05;;;;;;;3.43;3.05;;;;;;;10.85;65.04;99918.89;232070;1177;116098;-67
2021/05/03 10:13:10;;;;;;;6.00;4.65;;;;;;;11.05;64.84;99918.53;232685;1178;116067;-67
2021/05/03 10:18:20;;;;;;;6.30;3.33;;;;;;;11.21;65.03;99907.16;233920;1177;115210;-68
2021/05/03 10:23:26;;;;;;;3.65;3.05;;;;;;;11.42;64.65;99911.87;233064;1177;115044;-68
2021/05/03 10:28:29;;;;;;;4.20;3.80;;;;;;;11.52;64.38;99913.94;234455;1177;114588;-68
2021/05/03 10:33:39;;;;;;;4.07;3.37;;;;;;;11.30;62.81;99913.77;234253;1177;115149;-69
2021/05/03 10:38:42;;;;;;;4.47;3.23;;;;;;;11.17;64.23;99906.00;233416;1177;116253;-67
2021/05/03 10:43:47;;;;;;;3.00;2.40;;;;;;;11.18;63.41;99910.30;232508;1177;115839;-68
2021/05/03 10:49:05;;;;;;;3.60;3.23;;;;;;;11.18;63.11;99906.81;232963;1177;114829;-68
2021/05/03 10:54:19;;;;;;;3.80;3.00;;;;;;;11.67;63.17;99922.23;233413;1177;115469;-69
2021/05/03 10:59:23;;;;;;;7.70;4.00;;;;;;;11.66;62.49;99917.95;231947;1170;115474;-67
2021/05/03 11:04:28;;;;;;;2.97;2.77;;;;;;;11.47;62.00;99911.16;232021;1177;115160;-68
2021/05/03 11:09:38;;;;;;;3.47;2.87;;;;;;;10.99;61.94;99908.81;232128;1178;116072;-68
2021/05/03 11:15:23;;;;;;;4.25;2.85;;;;;;;10.46;62.28;99923.84;233447;1178;115890;-68
2021/05/03 11:20:57;;;;;;;6.13;3.37;;;;;;;10.75;62.68;99914.13;232637;1177;115977;-68
2021/05/03 11:26:03;;;;;;;3.07;2.87;;;;;;;10.79;62.43;99909.15;232203;1177;117572;-68
2021/05/03 11:31:20;;;;;;;4.95;4.40;;;;;;;10.74;62.16;99911.69;232014;1177;115827;-68
2021/05/03 11:36:29;;;;;;;1.98;1.80;;;;;;;10.19;61.54;99924.44;232100;1179;115522;-69
2021/05/03 11:42:01;;;;;;;2.60;2.30;;;;;;;9.95;62.67;99931.55;231995;1177;115806;-67
2021/05/03 11:47:05;;;;;;;4.07;2.67;;;;;;;10.20;62.44;99931.42;232911;1177;116666;-67
2021/05/03 11:52:30;;;;;;;4.83;2.10;;;;;;;10.42;62.23;99935.17;232058;1177;115465;-68
2021/05/03 11:57:36;;;;;;;2.60;2.20;;;;;;;10.40;61.80;99940.73;231878;1177;115800;-68
2021/05/03 12:02:39;;;;;;;6.10;2.40;;;;;;;10.40;61.82;99943.40;231980;1179;115408;-68
2021/05/03 12:07:43;;;;;;;2.10;1.93;;;;;;;10.55;62.25;99936.84;232703;1177;115011;-67
2021/05/03 12:12:54;;;;;;;3.00;2.40;;;;;;;10.61;61.20;99949.25;232967;1174;117535;-68
2021/05/03 12:18:05;;;;;;;4.00;2.50;;;;;;;10.50;61.85;99945.52;233344;1177;115670;-67
2021/05/03 12:23:10;;;;;;;4.70;3.10;;;;;;;10.47;61.55;99945.97;233493;1177;114622;-67
2021/05/03 12:28:16;;;;;;;3.10;2.40;;;;;;;10.45;61.47;99946.20;234482;1177;115153;-69
2021/05/03 12:33:20;;;;;;;1.80;1.65;;;;;;;10.39;61.53;99941.80;234475;1177;114769;-69
2021/05/03 12:38:29;;;;;;;2.28;2.18;;;;;;;10.41;62.17;99937.03;234488;1177;114985;-67
2021/05/03 12:43:38;;;;;;;21.50;15.50;;;;;;;10.68;61.20;99940.11;232973;1177;115164;-69
2021/05/03 12:49:12;;;;;;;5.10;3.85;;;;;;;10.92;61.49;99938.27;233922;1177;116617;-72
2021/05/03 12:54:31;;;;;;;3.95;3.55;;;;;;;11.34;61.21;99932.77;233586;1177;115308;-69
2021/05/03 12:59:43;;;;;;;3.43;3.00;;;;;;;11.32;60.83;99933.00;233443;1177;115839;-67
2021/05/03 13:04:57;;;;;;;2.60;2.40;;;;;;;11.35;60.65;99921.05;233203;1177;115764;-69
2021/05/03 13:31:45;;;;;;;2.30;2.00;;;;;;;10.61;60.65;99922.59;232182;1177;116009;-68
2021/05/03 13:36:50;;;;;;;1.60;1.50;;;;;;;10.62;60.97;99925.03;233192;1177;115563;-70
2021/05/03 13:41:54;;;;;;;1.73;1.63;;;;;;;10.55;60.74;99923.51;232368;1177;116040;-72
2021/05/03 13:46:58;;;;;;;3.25;2.60;;;;;;;10.12;61.31;99940.51;232585;1177;115702;-69
2021/05/03 13:52:02;;;;;;;2.07;1.97;;;;;;;10.10;61.52;99931.93;231999;1177;116767;-71
2021/05/03 13:57:07;;;;;;;2.23;2.03;;;;;;;10.39;61.50;99941.80;231970;1170;116687;-71
2021/05/03 14:02:11;;;;;;;3.70;3.05;;;;;;;10.52;61.40;99945.28;232940;1177;115082;-68
2021/05/03 14:07:14;;;;;;;3.15;2.95;;;;;;;10.42;61.78;99946.65;233262;1177;115753;-69
2021/05/03 14:12:18;;;;;;;3.63;3.17;;;;;;;10.25;61.43;99955.53;233901;1177;115039;-69
2021/05/03 14:17:21;;;;;;;2.95;2.58;;;;;;;10.12;61.43;99943.17;231993;1177;115053;-67
2021/05/03 14:22:25;;;;;;;2.90;2.70;;;;;;;10.19;62.14;99938.60;231952;1177;116198;-68
2021/05/03 14:27:28;;;;;;;2.60;2.23;;;;;;;10.12;61.36;99943.98;233047;1177;115725;-69
2021/05/03 14:32:53;;;;;;;2.25;2.05;;;;;;;9.99;61.26;99946.03;232246;1177;116711;-69
2021/05/03 14:37:56;;;;;;;2.93;2.60;;;;;;;9.87;61.43;99942.50;231995;1177;114545;-69
2021/05/03 14:43:02;;;;;;;4.08;3.20;;;;;;;9.80;62.22;99938.06;233252;1177;114368;-68
2021/05/03 14:48:13;;;;;;;4.37;3.80;;;;;;;9.79;62.63;99936.44;234531;1177;114790;-67
2021/05/03 14:58:21;;;;;;;5.30;2.20;;;;;;;9.82;61.81;99929.86;232867;1177;114919;-70
2021/05/03 15:03:27;;;;;;;5.35;2.85;;;;;;;9.72;62.13;99934.92;233753;1177;115994;-71
2021/05/03 15:08:30;;;;;;;4.20;2.77;;;;;;;9.60;61.62;99932.19;232521;1177;116193;-72
2021/05/03 15:18:51;;;;;;;3.90;3.33;;;;;;;9.37;61.64;99918.76;231858;1177;115658;-71
2021/05/03 15:23:54;;;;;;;4.20;2.43;;;;;;;9.36;62.12;99909.16;232345;1177;115794;-71
2021/05/03 15:34:03;;;;;;;3.23;1.80;;;;;;;9.63;62.32;99899.81;232583;1177;115751;-67
2021/05/03 15:39:11;;;;;;;1.77;1.27;;;;;;;9.77;61.31;99909.26;232109;1177;115814;-69
2021/05/03 15:44:27;;;;;;;2.50;1.95;;;;;;;9.79;62.35;99906.34;232745;1177;115382;-67
2021/05/03 15:49:48;;;;;;;3.83;1.55;;;;;;;9.67;61.53;99902.84;232749;1177;116090;-70
2021/05/03 15:54:55;;;;;;;3.00;1.95;;;;;;;9.42;61.66;99908.27;231983;1177;116236;-67
2021/05/03 15:59:59;;;;;;;4.13;2.60;;;;;;;9.21;62.36;99900.72;232129;1179;119223;-67
2021/05/03 16:05:23;;;;;;;4.30;3.40;;;;;;;9.18;63.11;99895.83;231972;1178;117846;-69
2021/05/03 16:10:30;;;;;;;2.10;1.87;;;;;;;9.31;61.91;99890.38;231926;1178;117270;-66
2021/05/03 16:15:40;;;;;;;1.68;1.58;;;;;;;9.17;60.82;99895.05;231801;1179;116991;-71
2021/05/03 16:20:43;;;;;;;4.30;3.08;;;;;;;9.02;61.00;99910.54;233537;1178;116758;-69
2021/05/03 16:25:46;;;;;;;2.80;2.20;;;;;;;8.89;61.39;99914.13;233632;1178;116547;-69
2021/05/03 16:30:49;;;;;;;2.00;1.60;;;;;;;8.89;61.94;99908.81;232809;1179;116871;-68
2021/05/03 16:35:55;;;;;;;4.20;2.30;;;;;;;8.89;61.55;99913.31;233569;1180;116397;-67
2021/05/03 16:41:00;;;;;;;4.00;2.80;;;;;;;8.85;61.66;99909.50;234449;1177;116184;-68
2021/05/03 16:46:09;;;;;;;7.03;3.58;;;;;;;8.80;62.63;99907.49;232853;1177;115944;-70
2021/05/03 16:51:15;;;;;;;5.10;2.90;;;;;;;8.63;61.80;99901.90;234654;1177;117069;-71
2021/05/03 16:56:20;;;;;;;5.27;3.20;;;;;;;8.49;62.69;99911.03;232889;1178;116303;-69
2021/05/03 17:01:23;;;;;;;6.55;4.45;;;;;;;8.39;62.76;99908.84;232525;1177;116889;-68
2021/05/03 17:06:26;;;;;;;2.70;2.40;;;;;;;8.39;63.54;99908.84;232534;1180;115539;-67
2021/05/03 17:11:29;;;;;;;3.60;2.23;;;;;;;8.40;62.91;99905.16;231966;1178;117109;-66
2021/05/03 17:16:32;;;;;;;3.73;3.17;;;;;;;8.33;63.23;99903.58;232102;1178;116423;-66
2021/05/03 17:21:41;;;;;;;7.55;6.20;;;;;;;8.18;62.75;99906.53;231810;1177;117772;-68
2021/05/03 17:26:48;;;;;;;1.65;1.55;;;;;;;7.95;62.83;99906.28;231972;1177;115570;-71
2021/05/03 17:31:50;;;;;;;3.53;2.07;;;;;;;7.81;63.40;99899.41;233994;1174;115151;-68
2021/05/03 17:36:54;;;;;;;2.73;1.80;;;;;;;7.73;63.10;99906.58;232103;1178;116570;-68
2021/05/03 17:41:59;;;;;;;1.17;1.13;;;;;;;7.65;62.92;99909.47;232040;1177;116005;-70
2021/05/03 17:47:03;;;;;;;5.88;3.15;;;;;;;7.53;62.88;99913.83;232101;1179;115585;-68
2021/05/03 17:52:07;;;;;;;11.08;3.50;;;;;;;7.47;63.88;99916.50;232324;1178;117334;-70
2021/05/03 17:57:11;;;;;;;5.83;3.13;;;;;;;7.40;63.97;99925.28;231947;1173;116192;-68
2021/05/03 18:02:15;;;;;;;3.75;2.20;;;;;;;7.33;63.98;99923.70;232172;1177;115952;-70
2021/05/03 18:07:19;;;;;;;2.30;2.00;;;;;;;7.25;63.50;99922.09;233358;1177;116368;-67
2021/05/03 18:12:23;;;;;;;4.03;2.40;;;;;;;7.18;64.45;99926.59;232675;1177;115601;-68
2021/05/03 18:17:30;;;;;;;2.03;1.93;;;;;;;7.09;64.13;99933.94;233451;1177;114774;-69
2021/05/03 18:22:38;;;;;;;2.80;1.95;;;;;;;7.01;64.67;99938.66;233899;1177;116233;-69
2021/05/03 18:27:42;;;;;;;4.10;2.70;;;;;;;6.93;64.63;99944.98;232059;1177;114998;-68
2021/05/03 18:32:49;;;;;;;4.20;3.20;;;;;;;6.90;64.64;99953.34;232168;1177;114976;-65
2021/05/03 18:37:52;;;;;;;2.30;1.70;;;;;;;6.93;65.10;99944.98;232383;1178;115389;-66
2021/05/03 18:42:55;;;;;;;7.03;3.10;;;;;;;6.91;64.79;99949.67;234460;1177;117379;-68
2021/05/03 18:47:58;;;;;;;2.40;2.20;;;;;;;6.91;65.41;99957.63;233714;1177;115766;-68
2021/05/03 18:53:02;;;;;;;6.95;2.78;;;;;;;6.88;65.58;99955.38;234034;1180;117493;-68
2021/05/03 18:58:05;;;;;;;6.87;3.90;;;;;;;6.85;65.33;99942.55;233127;1179;115097;-68
2021/05/03 19:03:09;;;;;;;4.00;1.98;;;;;;;6.82;66.00;99948.25;232744;1175;114815;-69
2021/05/03 19:08:15;;;;;;;3.77;2.77;;;;;;;6.79;66.12;99948.66;232452;1177;115403;-68
2021/05/03 19:13:19;;;;;;;6.93;4.33;;;;;;;6.78;65.56;99948.86;232027;1177;115780;-68
2021/05/03 19:18:23;;;;;;;5.88;3.85;;;;;;;6.77;66.16;99940.09;232529;1177;114909;-69
2021/05/03 19:23:27;;;;;;;4.53;3.60;;;;;;;6.70;66.08;99941.95;232331;1177;116200;-69
2021/05/03 19:28:31;;;;;;;3.17;2.67;;;;;;;6.49;65.77;99940.30;232878;1177;116077;-68
2021/05/03 19:33:35;;;;;;;7.28;3.55;;;;;;;6.28;66.64;99936.02;232765;1177;117625;-68
2021/05/03 19:38:38;;;;;;;5.50;3.18;;;;;;;6.17;67.06;99943.72;232570;1177;115440;-71
2021/05/03 19:43:41;;;;;;;11.43;4.08;;;;;;;6.03;67.22;99932.31;232115;1177;115869;-70
2021/05/03 19:48:45;;;;;;;5.47;3.87;;;;;;;5.94;67.40;99936.15;232742;1177;116248;-66
2021/05/03 19:54:00;;;;;;;6.70;4.05;;;;;;;5.91;67.37;99940.00;232128;1177;116020;-68
2021/05/03 20:04:27;;;;;;;11.73;5.00;;;;;;;5.89;67.80;99933.28;232425;1177;115840;-68
2021/05/03 20:09:31;;;;;;;6.20;4.40;;;;;;;5.83;67.94;99936.69;231889;1177;116126;-68
2021/05/03 20:14:35;;;;;;;6.97;3.73;;;;;;;5.78;68.21;99928.55;232066;1177;116038;-68
2021/05/03 20:19:38;;;;;;;7.20;3.20;;;;;;;5.64;68.19;99928.50;232353;1177;115394;-68
2021/05/03 20:24:42;;;;;;;9.00;5.20;;;;;;;5.58;68.34;99933.75;232675;1170;115125;-67
2021/05/03 20:29:47;;;;;;;11.60;6.80;;;;;;;5.57;68.50;99930.30;232429;1177;115892;-65
2021/05/03 20:35:06;;;;;;;5.80;3.60;;;;;;;5.54;68.46;99929.88;233986;1177;115971;-65
2021/05/03 20:40:10;;;;;;;6.50;3.85;;;;;;;5.47;68.56;99932.51;234503;1177;114949;-67
2021/05/03 20:45:14;;;;;;;5.70;3.20;;;;;;;5.37;68.59;99926.76;234640;1177;115662;-69
2021/05/03 20:50:20;;;;;;;9.58;4.28;;;;;;;5.23;68.49;99930.33;234663;1177;115015;-69
2021/05/03 20:55:23;;;;;;;5.60;3.80;;;;;;;5.20;68.83;99925.47;234148;1177;116113;-67
2021/05/03 21:00:27;;;;;;;6.40;4.15;;;;;;;5.15;68.73;99923.40;233916;1177;118582;-67
2021/05/03 21:05:31;;;;;;;4.08;3.40;;;;;;;5.03;68.88;99922.30;232706;1177;114884;-70
2021/05/03 21:10:36;;;;;;;8.65;4.20;;;;;;;4.90;69.48;99912.45;233208;1174;114482;-69
2021/05/03 21:15:41;;;;;;;9.67;4.37;;;;;;;4.86;69.92;99919.16;233196;1177;115227;-69
2021/05/03 21:20:43;;;;;;;10.00;4.70;;;;;;;4.89;69.93;99910.04;232088;1177;115043;-70
2021/05/03 21:25:46;;;;;;;9.90;5.03;;;;;;;4.93;70.00;99920.00;232750;1177;115500;-69
2021/05/03 21:30:49;;;;;;;7.30;4.90;;;;;;;4.99;70.09;99923.70;232583;1179;115594;-70
2021/05/03 21:35:53;;;;;;;7.90;5.65;;;;;;;5.03;70.08;99924.95;232232;1177;114516;-69
2021/05/03 21:40:56;;;;;;;7.30;4.93;;;;;;;4.99;70.39;99918.41;232097;1177;115280;-69
2021/05/03 21:46:00;;;;;;;6.75;4.60;;;;;;;4.96;70.57;99918.80;232544;1177;115507;-69
2021/05/03 21:51:03;;;;;;;8.50;5.00;;;;;;;4.96;70.28;99919.61;232861;1177;115792;-69
2021/05/03 21:56:08;;;;;;;9.57;6.00;;;;;;;4.98;70.72;99920.23;232448;1177;115279;-70
2021/05/03 22:01:14;;;;;;;6.95;5.85;;;;;;;5.03;70.20;99915.19;232584;1179;114646;-70
2021/05/03 22:06:20;;;;;;;8.70;5.25;;;;;;;5.08;70.38;99918.08;232034;1177;116630;-70
2021/05/03 22:11:29;;;;;;;10.45;6.55;;;;;;;5.08;70.25;99906.69;232054;1177;115227;-70
2021/05/03 22:16:36;;;;;;;9.33;4.93;;;;;;;5.09;70.20;99913.60;233034;1178;114776;-70
2021/05/03 22:21:46;;;;;;;7.90;6.80;;;;;;;5.06;70.28;99909.52;232558;1178;116544;-70
2021/05/03 22:27:14;;;;;;;10.48;6.20;;;;;;;4.98;70.34;99904.39;232541;1177;115410;-69
2021/05/03 22:32:19;;;;;;;12.40;5.20;;;;;;;4.91;69.92;99900.88;233346;1177;115342;-70
2021/05/03 22:37:33;;;;;;;11.95;6.45;;;;;;;4.84;69.87;99894.77;233163;1177;115103;-68
2021/05/03 23:19:47;;;;;;;10.50;4.63;;;;;;;3.72;70.50;99880.60;232381;1178;115124;-69
2021/05/03 23:24:51;;;;;;;10.00;4.40;;;;;;;3.54;71.77;99881.03;232891;1177;114688;-69
2021/05/03 23:29:55;;;;;;;10.67;5.67;;;;;;;3.47;71.08;99885.40;231946;1177;115296;-68
2021/05/03 23:34:59;;;;;;;8.47;5.13;;;;;;;3.48;71.76;99876.49;232209;1177;115650;-69
2021/05/03 23:40:03;;;;;;;14.00;5.98;;;;;;;3.49;72.56;99878.13;232832;1177;115739;-68
2021/05/03 23:45:08;;;;;;;11.13;5.60;;;;;;;3.56;73.03;99875.58;232871;1177;115801;-68
2021/05/03 23:50:13;;;;;;;11.53;5.90;;;;;;;3.69;73.16;99868.61;232371;1178;116036;-68
2021/05/03 23:55:17;;;;;;;13.08;6.95;;;;;;;3.86;73.20;99857.84;232224;1177;115954;-68
